Time;durP1;ratioP1;P1;durP2;ratioP2;P2;SDS_P1;SDS_P2;PMS_P1;PMS_P2;Temp;Humidity;BMP_temperature;BMP_pressure;BME280_temperature;BME280_humidity;BME280_pressure;Samples;Min_cycle;Max_cycle;Signal;HPM_P1;HPM_P2
2022/05/06 00:02:22;;;;;;;0.20;0.20;;;;;;;18.14;60.10;99921.97;6216344;23;20005;-71
2022/05/06 00:04:48;;;;;;;0.20;0.20;;;;;;;18.13;59.98;99926.78;6215948;23;20433;-72
2022/05/06 00:07:14;;;;;;;0.10;0.10;;;;;;;18.09;59.91;99937.28;6215999;23;20452;-72
2022/05/06 00:09:41;;;;;;;0.20;0.20;;;;;;;18.06;59.94;99949.41;6216341;23;20001;-71
2022/05/06 00:12:08;;;;;;;0.20;0.20;;;;;;;18.15;58.82;99951.72;6216021;23;20083;-72
2022/05/06 00:14:36;;;;;;;0.20;0.20;;;;;;;18.14;58.83;99955.75;6215945;23;20461;-70
2022/05/06 00:17:03;;;;;;;0.20;0.20;;;;;;;18.20;58.42;99968.94;6215945;23;20088;-71
2022/05/06 00:19:29;;;;;;;0.20;0.20;;;;;;;18.36;57.44;99981.63;6215715;23;20019;-72
2022/05/06 00:21:54;;;;;;;0.20;0.20;;;;;;;18.36;56.94;99990.09;6215909;23;20047;-72
2022/05/06 00:24:23;;;;;;;0.10;0.10;;;;;;;18.31;56.87;99988.53;6215888;23;20004;-71
2022/05/06 00:26:48;;;;;;;0.20;0.20;;;;;;;18.54;55.92;99999.13;6216189;23;20012;-70
2022/05/06 00:29:14;;;;;;;0.20;0.20;;;;;;;18.61;55.12;100004.66;6215861;23;20512;-70
2022/05/06 00:31:40;;;;;;;0.20;0.20;;;;;;;18.50;55.38;100018.09;6215249;23;20024;-71
2022/05/06 00:34:05;;;;;;;0.13;0.13;;;;;;;18.44;54.49;100045.13;6216452;23;20009;-71
2022/05/06 00:36:31;;;;;;;0.15;0.15;;;;;;;18.49;54.66;100061.56;6215765;23;20430;-71
2022/05/06 00:38:57;;;;;;;0.20;0.20;;;;;;;18.37;54.92;100064.91;6215576;23;20028;-71
2022/05/06 00:41:22;;;;;;;0.10;0.10;;;;;;;18.20;55.00;100046.97;6216185;23;20011;-71
2022/05/06 00:43:48;;;;;;;0.20;0.20;;;;;;;18.31;54.54;100040.00;6215651;23;20032;-71
2022/05/06 00:46:15;;;;;;;0.10;0.10;;;;;;;18.30;54.85;100052.50;6215995;23;20016;-71
2022/05/06 00:48:43;;;;;;;0.20;0.20;;;;;;;18.28;54.94;100035.25;6215586;23;20078;-70
2022/05/06 00:51:09;;;;;;;0.20;0.20;;;;;;;18.17;54.97;100040.19;6215890;23;20478;-71
2022/05/06 00:53:36;;;;;;;0.20;0.20;;;;;;;18.21;55.35;100057.03;6215574;23;20086;-73
2022/05/06 00:56:04;;;;;;;0.20;0.20;;;;;;;18.11;55.27;100047.50;6191069;23;20008;-73
2022/05/06 00:58:31;;;;;;;0.20;0.20;;;;;;;18.16;55.71;100051.84;6216216;23;20013;-71
2022/05/06 01:00:57;;;;;;;0.20;0.20;;;;;;;18.13;55.59;100061.94;6215581;23;20012;-73
2022/05/06 01:03:23;;;;;;;0.20;0.20;;;;;;;18.10;56.16;100045.88;6215442;23;20421;-71
2022/05/06 01:05:49;;;;;;;0.10;0.10;;;;;;;18.06;57.83;100005.72;6216182;23;20083;-73
2022/05/06 01:08:16;;;;;;;0.10;0.10;;;;;;;18.04;59.47;99991.25;6215444;23;20414;-71
2022/05/06 01:10:43;;;;;;;0.13;0.13;;;;;;;18.03;60.36;99984.81;6216144;23;20012;-71
2022/05/06 01:13:09;;;;;;;0.10;0.10;;;;;;;18.05;61.15;99984.38;6215460;23;20061;-72
2022/05/06 01:15:36;;;;;;;0.10;0.10;;;;;;;17.99;61.68;99966.34;6214729;23;20009;-72
2022/05/06 01:18:02;;;;;;;0.20;0.20;;;;;;;17.92;61.93;99972.88;6215368;23;20092;-72
2022/05/06 01:20:28;;;;;;;0.20;0.20;;;;;;;17.85;62.43;99969.34;6215895;23;20048;-72
2022/05/06 01:22:58;;;;;;;0.17;0.17;;;;;;;17.82;63.05;99978.59;6215362;23;20009;-72
2022/05/06 01:25:25;;;;;;;0.20;0.20;;;;;;;17.89;63.30;99970.09;6215357;23;20024;-71
2022/05/06 01:27:57;;;;;;;0.20;0.20;;;;;;;17.96;64.22;99984.09;6215521;23;20015;-71
2022/05/06 01:30:30;;;;;;;0.10;0.10;;;;;;;17.80;64.63;99981.84;6215280;23;20409;-71
2022/05/06 01:32:57;;;;;;;0.20;0.20;;;;;;;17.60;64.75;99955.47;6215336;23;20012;-71
2022/05/06 01:35:25;;;;;;;0.20;0.20;;;;;;;17.65;65.03;99981.16;6215895;23;20016;-73
2022/05/06 01:37:53;;;;;;;0.20;0.20;;;;;;;17.88;65.74;99991.00;6215171;23;20013;-72
2022/05/06 01:40:20;;;;;;;0.10;0.10;;;;;;;17.76;65.76;100020.47;6215105;23;20015;-72
2022/05/06 01:42:46;;;;;;;0.20;0.20;;;;;;;17.71;66.38;100018.88;6214842;23;20019;-73
2022/05/06 01:45:17;;;;;;;0.20;0.20;;;;;;;17.73;65.61;99996.75;6215790;23;20008;-71
2022/05/06 01:47:43;;;;;;;0.17;0.17;;;;;;;17.65;64.44;100003.66;6214744;23;20178;-71
2022/05/06 01:50:12;;;;;;;0.10;0.10;;;;;;;17.62;60.62;100010.09;6215074;23;20055;-71
2022/05/06 01:52:41;;;;;;;0.20;0.20;;;;;;;17.96;58.29;99984.91;6215098;23;20016;-72
2022/05/06 01:55:07;;;;;;;0.20;0.20;;;;;;;17.76;60.23;99979.06;6215062;23;20008;-72
2022/05/06 01:57:33;;;;;;;0.10;0.10;;;;;;;17.72;60.83;99969.84;6215085;23;20009;-71
2022/05/06 01:59:58;;;;;;;0.20;0.20;;;;;;;17.90;59.23;99964.06;6214949;23;20011;-72
2022/05/06 02:02:26;;;;;;;0.10;0.10;;;;;;;17.85;60.27;99983.41;6215399;23;20008;-72
2022/05/06 02:07:39;;;;;;;0.20;0.20;;;;;;;17.57;61.43;99968.34;6216902;23;20019;-72
2022/05/06 02:10:04;;;;;;;0.20;0.20;;;;;;;17.58;63.10;99981.22;6215672;23;20087;-72
2022/05/06 02:12:30;;;;;;;0.20;0.20;;;;;;;17.57;62.65;99993.66;6214930;23;20494;-71
2022/05/06 02:14:56;;;;;;;0.20;0.20;;;;;;;17.56;62.37;99989.25;6214774;23;20008;-72
2022/05/06 02:17:21;;;;;;;0.20;0.20;;;;;;;17.53;62.65;99990.09;6215113;23;20005;-73
2022/05/06 02:19:51;;;;;;;0.20;0.20;;;;;;;17.76;60.74;99981.06;6215944;23;20005;-72
2022/05/06 02:22:17;;;;;;;0.20;0.20;;;;;;;17.74;61.43;99981.50;6215196;23;20023;-72
2022/05/06 02:24:43;;;;;;;0.10;0.10;;;;;;;17.79;62.61;99978.25;6214715;23;20511;-71
2022/05/06 02:27:12;;;;;;;0.20;0.20;;;;;;;17.61;62.79;99968.31;6214765;23;20015;-71
2022/05/06 02:29:38;;;;;;;0.20;0.20;;;;;;;17.74;63.47;99970.25;6216052;23;20449;-72
2022/05/06 02:34:49;;;;;;;0.20;0.20;;;;;;;17.51;63.06;99975.63;6246656;23;20019;-73
2022/05/06 02:37:15;;;;;;;0.20;0.20;;;;;;;17.49;62.90;99956.38;6220393;23;20440;-74
2022/05/06 02:39:41;;;;;;;0.20;0.20;;;;;;;17.49;63.28;99966.81;6219548;23;20008;-72
2022/05/06 02:42:07;;;;;;;0.10;0.10;;;;;;;17.22;61.35;99975.09;6219292;23;20011;-72
2022/05/06 02:44:32;;;;;;;0.20;0.20;;;;;;;17.27;61.47;99983.06;6219277;23;20077;-72
2022/05/06 02:47:00;;;;;;;0.15;0.15;;;;;;;17.21;62.50;99977.09;6219767;23;20372;-71
2022/05/06 02:49:26;;;;;;;0.20;0.20;;;;;;;17.35;60.79;99958.50;6219629;23;20091;-72
2022/05/06 02:51:52;;;;;;;0.20;0.20;;;;;;;17.13;62.75;99950.25;6219648;23;20035;-74
2022/05/06 02:54:21;;;;;;;0.20;0.20;;;;;;;17.22;63.90;99930.09;6220329;23;20012;-72
2022/05/06 02:56:49;;;;;;;0.20;0.20;;;;;;;17.16;66.18;99904.44;6219963;23;20015;-72
2022/05/06 02:59:14;;;;;;;0.20;0.20;;;;;;;17.06;66.71;99896.91;6246922;23;20035;-73
2022/05/06 03:01:40;;;;;;;0.20;0.20;;;;;;;17.03;67.35;99881.66;6219527;23;20011;-73
2022/05/06 03:04:07;;;;;;;0.20;0.20;;;;;;;17.09;68.24;99881.19;6219613;23;20010;-73
2022/05/06 03:06:32;;;;;;;0.20;0.20;;;;;;;17.03;69.15;99864.78;6219600;23;20008;-73
2022/05/06 03:08:58;;;;;;;0.20;0.20;;;;;;;16.90;69.81;99857.28;6219664;23;20016;-72
2022/05/06 03:11:26;;;;;;;0.20;0.20;;;;;;;16.83;69.70;99854.50;6219635;23;20066;-72
2022/05/06 03:13:54;;;;;;;0.20;0.20;;;;;;;16.79;69.54;99856.56;6219584;23;20008;-73
2022/05/06 03:16:19;;;;;;;0.20;0.20;;;;;;;16.72;68.82;99847.00;6219861;23;20095;-72
2022/05/06 03:18:45;;;;;;;0.20;0.20;;;;;;;16.81;68.28;99840.09;6219532;23;20373;-72
2022/05/06 03:21:11;;;;;;;0.17;0.17;;;;;;;16.80;68.14;99852.53;6220074;23;20008;-73
2022/05/06 03:23:37;;;;;;;0.10;0.10;;;;;;;16.81;67.12;99842.91;6219441;23;20421;-72
2022/05/06 03:26:02;;;;;;;0.20;0.20;;;;;;;16.77;67.48;99854.94;6194881;23;20337;-73
2022/05/06 03:28:31;;;;;;;0.13;0.13;;;;;;;16.57;67.38;99861.50;6219815;23;20047;-73
2022/05/06 03:30:57;;;;;;;0.20;0.20;;;;;;;16.39;68.92;99870.81;6214158;23;20024;-73
2022/05/06 03:33:24;;;;;;;0.20;0.20;;;;;;;16.27;69.65;99876.91;6214420;23;20009;-73
2022/05/06 03:35:51;;;;;;;0.20;0.20;;;;;;;16.23;69.41;99865.69;6214754;23;20437;-72
2022/05/06 03:38:17;;;;;;;0.20;0.20;;;;;;;16.06;69.65;99854.56;6215539;23;20016;-73
2022/05/06 03:40:43;;;;;;;0.20;0.20;;;;;;;16.27;69.73;99857.25;6215875;23;20004;-72
2022/05/06 03:43:11;;;;;;;0.20;0.20;;;;;;;16.21;68.85;99859.72;6215975;23;20004;-73
2022/05/06 03:45:38;;;;;;;0.20;0.20;;;;;;;16.21;69.23;99864.53;6214987;23;20016;-71
2022/05/06 03:48:05;;;;;;;0.20;0.20;;;;;;;16.14;69.60;99868.16;6215188;23;20083;-72
2022/05/06 03:53:14;;;;;;;0.20;0.20;;;;;;;16.09;70.50;99853.75;6216454;23;20019;-72
2022/05/06 03:55:40;;;;;;;0.20;0.20;;;;;;;16.16;71.35;99862.94;6216491;23;20036;-74
2022/05/06 03:58:06;;;;;;;0.20;0.20;;;;;;;16.24;71.22;99863.69;6216825;23;20334;-73
2022/05/06 04:00:31;;;;;;;0.20;0.20;;;;;;;16.49;71.06;99872.78;6216015;23;20418;-74
2022/05/06 04:02:57;;;;;;;0.20;0.20;;;;;;;16.44;71.07;99883.63;6216384;23;20004;-72
2022/05/06 04:05:22;;;;;;;0.20;0.20;;;;;;;16.36;71.24;99879.28;6216430;23;20012;-72
2022/05/06 04:07:48;;;;;;;0.20;0.20;;;;;;;16.36;71.58;99879.28;6216000;23;20318;-72
2022/05/06 04:10:13;;;;;;;0.20;0.20;;;;;;;16.39;71.38;99889.69;6216283;23;20009;-72
2022/05/06 04:12:39;;;;;;;0.20;0.20;;;;;;;16.37;71.71;99870.44;6215938;23;20008;-72
2022/05/06 04:15:06;;;;;;;0.20;0.20;;;;;;;16.48;71.17;99876.78;6215921;23;20009;-72
2022/05/06 04:17:32;;;;;;;0.20;0.20;;;;;;;16.34;69.28;99864.84;6216556;23;20078;-71
2022/05/06 04:25:25;;;;;;;;;;;;;;;16.45;67.19;99837.50;6218251;23;20081;-72
2022/05/06 04:27:51;;;;;;;0.20;0.20;;;;;;;16.43;67.37;99823.09;6216139;23;20321;-72
2022/05/06 04:30:16;;;;;;;0.20;0.20;;;;;;;16.47;67.94;99818.25;6226531;23;20500;-72
2022/05/06 04:32:42;;;;;;;0.20;0.20;;;;;;;16.61;67.46;99806.09;6221331;23;20325;-72
2022/05/06 04:35:09;;;;;;;0.20;0.20;;;;;;;16.59;67.60;99795.28;6221075;23;20384;-72
2022/05/06 04:37:35;;;;;;;0.20;0.20;;;;;;;16.65;67.69;99802.06;6220638;23;20091;-72
2022/05/06 04:40:01;;;;;;;0.20;0.20;;;;;;;16.79;67.30;99806.00;6220942;23;20079;-72
2022/05/06 04:42:27;;;;;;;0.20;0.20;;;;;;;16.82;66.14;99805.94;6220629;23;20472;-72
2022/05/06 04:44:53;;;;;;;0.20;0.20;;;;;;;16.83;65.98;99801.13;6221434;23;20053;-72
2022/05/06 04:47:19;;;;;;;0.20;0.20;;;;;;;16.76;65.21;99790.75;6220610;23;20289;-72
2022/05/06 04:49:45;;;;;;;0.20;0.20;;;;;;;16.83;64.25;99801.13;6220670;23;20082;-72
2022/05/06 04:52:10;;;;;;;0.20;0.20;;;;;;;16.88;63.10;99797.88;6220572;23;20039;-73
2022/05/06 04:54:36;;;;;;;0.10;0.10;;;;;;;16.98;62.85;99786.53;6220910;23;20008;-73
2022/05/06 04:57:02;;;;;;;0.20;0.20;;;;;;;17.07;62.91;99779.66;6221201;23;20365;-72
2022/05/06 04:59:27;;;;;;;0.20;0.20;;;;;;;17.17;62.78;99771.09;6220400;23;20437;-72
2022/05/06 05:01:53;;;;;;;0.20;0.20;;;;;;;17.26;63.46;99810.78;6220440;23;20019;-73
2022/05/06 05:04:19;;;;;;;0.20;0.20;;;;;;;17.34;63.33;99830.38;6220062;23;20004;-72
2022/05/06 05:06:45;;;;;;;0.20;0.20;;;;;;;17.28;63.51;99844.88;6220375;23;20012;-73
2022/05/06 05:09:11;;;;;;;0.20;0.20;;;;;;;17.26;62.29;99864.19;6220298;23;20090;-72
2022/05/06 05:11:36;;;;;;;0.20;0.20;;;;;;;17.22;63.24;99877.47;6220930;23;20012;-72
2022/05/06 05:14:06;;;;;;;0.20;0.20;;;;;;;17.23;63.11;99870.63;6220301;23;20012;-70
2022/05/06 05:16:33;;;;;;;0.10;0.10;;;;;;;17.21;63.48;99884.31;6220980;23;20008;-72
2022/05/06 05:18:59;;;;;;;0.20;0.20;;;;;;;17.08;62.58;99896.47;6220238;23;20008;-72
2022/05/06 05:21:24;;;;;;;0.20;0.20;;;;;;;17.07;63.24;99901.31;6220492;23;20008;-71
2022/05/06 05:23:50;;;;;;;0.20;0.20;;;;;;;17.14;61.46;99890.00;6220499;23;20008;-70
2022/05/06 05:26:15;;;;;;;0.20;0.20;;;;;;;17.04;61.21;99916.16;6220957;23;20424;-72
2022/05/06 05:28:41;;;;;;;0.20;0.20;;;;;;;16.91;62.43;99935.53;6220189;23;20035;-72
2022/05/06 05:31:07;;;;;;;0.20;0.20;;;;;;;16.68;63.01;99940.88;6219771;23;20015;-71
2022/05/06 05:33:32;;;;;;;0.20;0.20;;;;;;;16.69;63.15;99926.44;6220085;23;20008;-72
2022/05/06 05:35:59;;;;;;;0.20;0.20;;;;;;;16.60;64.26;99928.88;6221154;23;20077;-72
2022/05/06 05:38:25;;;;;;;0.20;0.20;;;;;;;16.58;64.64;99914.47;6220651;23;20372;-72
2022/05/06 05:40:50;;;;;;;0.20;0.20;;;;;;;16.64;64.99;99918.44;6220300;23;20008;-73
2022/05/06 05:48:44;;;;;;;;;;;;;;;16.68;65.82;99901.56;6248024;23;20034;-72
2022/05/06 05:51:09;;;;;;;0.20;0.20;;;;;;;16.66;66.34;99898.34;6221376;23;19904;-73
2022/05/06 05:53:35;;;;;;;0.20;0.20;;;;;;;16.64;66.07;99897.97;6220268;23;20008;-73
2022/05/06 05:56:01;;;;;;;0.10;0.10;;;;;;;16.73;65.71;99899.16;6220607;23;20321;-73
2022/05/06 05:58:27;;;;;;;0.20;0.20;;;;;;;16.59;66.47;99902.00;6219605;23;20004;-72
2022/05/06 06:00:52;;;;;;;0.20;0.20;;;;;;;16.45;66.74;99865.56;6219779;23;20314;-72
2022/05/06 06:03:18;;;;;;;0.20;0.20;;;;;;;16.83;64.42;99897.47;6219662;23;20092;-72
2022/05/06 06:05:44;;;;;;;0.20;0.20;;;;;;;16.93;64.18;99884.53;6220545;23;20015;-73
2022/05/06 06:08:10;;;;;;;0.20;0.20;;;;;;;16.93;63.62;99884.53;6246722;23;20014;-72
2022/05/06 06:10:36;;;;;;;0.10;0.10;;;;;;;16.97;64.64;99891.72;6220179;23;20015;-73
2022/05/06 06:13:04;;;;;;;0.20;0.20;;;;;;;17.08;61.80;99896.47;6220160;23;20008;-73
2022/05/06 06:15:32;;;;;;;0.20;0.20;;;;;;;17.20;62.70;99896.75;6220265;23;20018;-73
2022/05/06 06:17:58;;;;;;;0.20;0.20;;;;;;;17.25;62.72;99896.31;6219960;23;20012;-72
2022/05/06 06:20:26;;;;;;;0.20;0.20;;;;;;;17.26;63.04;99902.75;6220351;23;20309;-72
2022/05/06 06:22:54;;;;;;;0.20;0.20;;;;;;;17.35;64.22;99905.88;6246263;23;20008;-72
2022/05/06 06:25:20;;;;;;;0.10;0.10;;;;;;;17.28;64.45;99891.88;6219605;23;20082;-72
2022/05/06 06:27:45;;;;;;;0.15;0.15;;;;;;;17.32;64.86;99908.75;6246773;23;20031;-74
2022/05/06 06:30:11;;;;;;;0.20;0.20;;;;;;;17.14;65.46;99884.38;6219703;23;20091;-72
2022/05/06 06:32:37;;;;;;;0.20;0.20;;;;;;;17.04;65.65;99879.63;6219866;23;20418;-72
2022/05/06 06:35:03;;;;;;;0.20;0.20;;;;;;;17.00;65.66;99876.88;6219677;23;20008;-73
2022/05/06 06:37:31;;;;;;;0.20;0.20;;;;;;;16.89;65.33;99866.94;6219460;23;20008;-72
2022/05/06 06:39:57;;;;;;;0.20;0.20;;;;;;;17.03;65.44;99861.97;6246349;23;20414;-72
2022/05/06 06:42:23;;;;;;;0.10;0.10;;;;;;;17.18;64.15;99859.84;6219801;23;20011;-72
2022/05/06 06:44:50;;;;;;;0.20;0.20;;;;;;;17.34;64.15;99847.25;6219527;23;20051;-72
2022/05/06 06:47:15;;;;;;;0.20;0.20;;;;;;;17.61;61.75;99844.53;6219409;23;20004;-73
2022/05/06 06:49:41;;;;;;;0.20;0.20;;;;;;;17.72;60.99;99834.78;6219931;23;20070;-72
2022/05/06 06:52:07;;;;;;;0.20;0.20;;;;;;;17.94;61.10;99823.28;6219343;23;20070;-73
2022/05/06 06:54:35;;;;;;;0.20;0.20;;;;;;;18.15;60.80;99825.00;6219336;23;20433;-72
2022/05/06 06:57:01;;;;;;;0.20;0.20;;;;;;;18.38;60.53;99810.22;6219689;23;20015;-71
2022/05/06 06:59:26;;;;;;;0.20;0.20;;;;;;;18.43;57.50;99804.91;6219377;23;20075;-70
2022/05/06 07:01:52;;;;;;;0.20;0.20;;;;;;;18.58;56.65;99806.25;6219449;23;20015;-72
2022/05/06 07:04:18;;;;;;;0.20;0.20;;;;;;;18.71;56.03;99792.41;6219953;23;20384;-71
2022/05/06 07:12:11;;;;;;;0.20;0.20;;;;;;;19.20;54.37;99795.56;6246065;23;20103;-71
2022/05/06 07:14:37;;;;;;;0.20;0.20;;;;;;;19.30;54.35;99790.97;6219243;23;20036;-71
2022/05/06 07:17:05;;;;;;;0.20;0.20;;;;;;;19.29;55.10;99804.28;6219199;23;20004;-71
2022/05/06 07:19:33;;;;;;;0.17;0.17;;;;;;;19.23;55.92;99800.38;6219329;23;20008;-72
2022/05/06 07:21:59;;;;;;;0.10;0.10;;;;;;;19.63;55.40;99798.41;6245846;23;20019;-71
2022/05/06 07:24:25;;;;;;;0.20;0.20;;;;;;;19.66;55.26;99796.75;6219306;23;20004;-71
2022/05/06 07:26:53;;;;;;;0.10;0.10;;;;;;;19.88;54.50;99806.34;6219191;23;20095;-72
2022/05/06 07:29:19;;;;;;;0.20;0.20;;;;;;;20.00;53.71;99807.72;6220577;23;20087;-71
2022/05/06 07:31:45;;;;;;;0.20;0.20;;;;;;;19.75;54.03;99802.59;6215488;23;20059;-71
2022/05/06 07:34:11;;;;;;;0.20;0.20;;;;;;;20.04;52.99;99813.28;6190764;23;20009;-72
2022/05/06 07:36:42;;;;;;;0.20;0.20;;;;;;;19.99;52.79;99808.97;6216101;23;20008;-72
2022/05/06 07:39:09;;;;;;;0.10;0.10;;;;;;;20.03;52.53;99815.31;6216710;23;20449;-71
2022/05/06 07:41:35;;;;;;;0.20;0.20;;;;;;;20.61;51.72;99806.34;6216362;23;20008;-72
2022/05/06 07:44:00;;;;;;;0.10;0.10;;;;;;;20.98;51.12;99796.53;6216536;23;20433;-71
2022/05/06 07:46:26;;;;;;;0.10;0.10;;;;;;;21.27;50.54;99799.44;6216161;23;20008;-71
2022/05/06 07:48:53;;;;;;;0.20;0.20;;;;;;;21.37;49.82;99794.75;6216475;23;20083;-70
2022/05/06 07:51:18;;;;;;;0.20;0.20;;;;;;;21.56;49.61;99795.84;6215942;23;20070;-71
2022/05/06 07:53:44;;;;;;;0.20;0.20;;;;;;;21.66;49.00;99794.75;6216235;23;20004;-71
2022/05/06 07:56:11;;;;;;;0.15;0.15;;;;;;;21.61;48.86;99800.94;6216262;23;20040;-72
2022/05/06 07:58:38;;;;;;;0.15;0.15;;;;;;;21.42;48.99;99799.88;6215934;23;20009;-71
2022/05/06 08:01:05;;;;;;;0.10;0.10;;;;;;;21.65;48.96;99801.66;6216444;23;20005;-72
2022/05/06 08:06:20;;;;;;;0.10;0.10;;;;;;;21.40;48.36;99793.84;6218028;23;20020;-72
2022/05/06 08:08:45;;;;;;;0.10;0.10;;;;;;;21.26;48.14;99806.34;6215188;23;20004;-73
2022/05/06 08:11:11;;;;;;;0.20;0.20;;;;;;;21.31;47.50;99811.50;6216059;23;20016;-70
2022/05/06 08:13:37;;;;;;;0.10;0.10;;;;;;;21.16;47.44;99808.22;6215690;23;20374;-70
2022/05/06 08:16:02;;;;;;;0.20;0.20;;;;;;;20.95;47.98;99808.75;6216362;23;20013;-70
2022/05/06 08:18:28;;;;;;;0.10;0.10;;;;;;;20.89;47.94;99810.53;6216214;23;20405;-70
2022/05/06 08:20:54;;;;;;;0.15;0.15;;;;;;;20.76;48.28;99807.59;6215626;23;20007;-72
2022/05/06 08:23:23;;;;;;;0.17;0.17;;;;;;;20.85;48.71;99807.78;6215822;23;20461;-72
2022/05/06 08:25:50;;;;;;;0.20;0.20;;;;;;;20.72;48.88;99784.31;6216353;23;20031;-72
2022/05/06 08:28:17;;;;;;;0.10;0.10;;;;;;;20.78;48.33;99819.28;6215844;23;20004;-73
2022/05/06 08:30:44;;;;;;;0.20;0.20;;;;;;;20.67;48.88;99828.03;6215247;23;20016;-73
2022/05/06 08:33:11;;;;;;;0.20;0.20;;;;;;;20.53;48.61;99828.34;6217242;23;20418;-72
2022/05/06 08:35:36;;;;;;;0.20;0.20;;;;;;;20.50;48.88;99828.44;6215751;23;20008;-73
2022/05/06 08:38:02;;;;;;;0.20;0.20;;;;;;;20.52;49.67;99834.44;6216322;23;20031;-70
2022/05/06 08:40:31;;;;;;;0.10;0.10;;;;;;;20.50;48.97;99845.38;6215714;23;20035;-71
2022/05/06 08:42:57;;;;;;;0.10;0.10;;;;;;;20.54;49.04;99846.09;6215241;23;20013;-71
2022/05/06 08:51:00;;;;;;;0.10;0.10;;;;;;;20.47;50.96;99858.38;6217409;23;20058;-71
2022/05/06 08:53:29;;;;;;;0.10;0.10;;;;;;;20.21;50.72;99839.56;6216971;23;20061;-71
2022/05/06 08:55:58;;;;;;;0.10;0.10;;;;;;;20.28;51.84;99876.91;6215391;23;20004;-72
2022/05/06 08:58:25;;;;;;;0.20;0.20;;;;;;;20.14;51.84;99886.50;6215434;23;20008;-72
2022/05/06 09:00:59;;;;;;;0.20;0.20;;;;;;;20.00;52.30;99880.34;6215694;23;20422;-72
2022/05/06 09:03:25;;;;;;;0.15;0.15;;;;;;;19.85;52.72;99891.91;6215809;23;20028;-72
2022/05/06 09:05:55;;;;;;;0.10;0.10;;;;;;;19.78;53.14;99886.41;6215325;23;20311;-72
2022/05/06 09:08:34;;;;;;;0.20;0.20;;;;;;;19.77;53.54;99873.53;6215385;23;20012;-72
2022/05/06 09:11:07;;;;;;;0.10;0.10;;;;;;;19.91;53.27;99880.13;6216002;23;20008;-73
2022/05/06 09:13:36;;;;;;;0.20;0.20;;;;;;;19.97;52.67;99881.19;6215580;23;20040;-73
2022/05/06 09:19:22;;;;;;;0.20;0.20;;;;;;;19.85;53.11;99893.94;6215185;23;20024;-72
2022/05/06 09:22:01;;;;;;;0.20;0.20;;;;;;;20.01;52.47;99882.72;6215984;23;20302;-72
2022/05/06 09:24:30;;;;;;;0.10;0.10;;;;;;;20.11;51.18;99884.53;6216049;23;20009;-72
2022/05/06 09:27:06;;;;;;;0.20;0.20;;;;;;;20.44;49.97;99893.09;6217045;23;20009;-71
2022/05/06 09:29:54;;;;;;;0.17;0.17;;;;;;;20.56;50.32;99897.31;6215433;22;20418;-72
2022/05/06 09:32:24;;;;;;;0.20;0.20;;;;;;;20.58;49.72;99900.53;6247344;23;20023;-71
2022/05/06 09:35:07;;;;;;;0.20;0.20;;;;;;;20.78;49.93;99901.28;6220466;23;20436;-71
2022/05/06 09:37:37;;;;;;;0.20;0.20;;;;;;;20.90;49.07;99903.41;6247278;23;20027;-71
2022/05/06 09:40:06;;;;;;;0.20;0.20;;;;;;;20.82;47.88;99901.97;6219662;23;20004;-71
2022/05/06 09:42:33;;;;;;;0.10;0.10;;;;;;;20.71;48.01;99895.75;6219965;23;20012;-71
2022/05/06 09:45:00;;;;;;;0.20;0.20;;;;;;;20.90;47.94;99903.41;6219989;23;20429;-72
2022/05/06 09:47:26;;;;;;;0.10;0.10;;;;;;;20.90;48.07;99891.28;6219873;23;20016;-71
2022/05/06 09:49:52;;;;;;;0.17;0.17;;;;;;;20.99;48.04;99896.34;6219853;23;20031;-71
2022/05/06 09:52:18;;;;;;;0.20;0.20;;;;;;;21.23;46.83;99874.31;6219910;23;20134;-72
2022/05/06 09:54:46;;;;;;;0.10;0.10;;;;;;;21.34;47.11;99894.69;6219786;23;20372;-72
2022/05/06 09:57:13;;;;;;;0.20;0.20;;;;;;;21.53;46.87;99899.44;6220406;23;20313;-71
2022/05/06 09:59:40;;;;;;;0.10;0.10;;;;;;;21.52;47.87;99875.22;6220102;23;20008;-72
2022/05/06 10:02:06;;;;;;;0.10;0.10;;;;;;;21.55;47.73;99874.31;6246419;23;20028;-71
2022/05/06 10:04:35;;;;;;;0.20;0.20;;;;;;;21.69;49.28;99882.41;6219754;23;20031;-71
2022/05/06 10:07:03;;;;;;;0.15;0.15;;;;;;;21.51;49.91;99884.13;6220000;23;20016;-72
2022/05/06 10:09:34;;;;;;;0.10;0.10;;;;;;;21.35;49.25;99868.75;6219768;23;20012;-71
2022/05/06 10:12:03;;;;;;;0.10;0.10;;;;;;;21.34;49.69;99864.34;6220385;23;20091;-72
2022/05/06 10:14:30;;;;;;;0.10;0.10;;;;;;;21.21;49.23;99869.13;6220490;23;20328;-72
2022/05/06 10:16:56;;;;;;;0.10;0.10;;;;;;;20.81;50.40;99876.97;6220382;23;20008;-72
2022/05/06 10:19:26;;;;;;;0.10;0.10;;;;;;;20.92;50.09;99881.13;6219625;23;20098;-71
2022/05/06 10:21:52;;;;;;;0.10;0.10;;;;;;;20.71;50.56;99861.84;6220533;23;20004;-71
2022/05/06 10:24:20;;;;;;;0.20;0.20;;;;;;;20.80;50.00;99873.34;6220370;23;20065;-71
2022/05/06 10:26:46;;;;;;;0.10;0.10;;;;;;;20.61;49.97;99875.00;6219543;23;20012;-71
2022/05/06 10:32:26;;;;;;;0.20;0.20;;;;;;;21.08;48.47;99857.69;6215716;23;20075;-72
2022/05/06 10:34:55;;;;;;;0.20;0.20;;;;;;;21.15;49.59;99863.19;6215096;23;20008;-72
2022/05/06 10:37:22;;;;;;;0.20;0.20;;;;;;;21.33;48.47;99862.75;6214709;23;20009;-72
2022/05/06 10:39:51;;;;;;;0.20;0.20;;;;;;;21.12;49.11;99851.97;6214965;23;20327;-72
2022/05/06 10:42:17;;;;;;;0.20;0.20;;;;;;;21.70;47.58;99861.34;6214741;23;20039;-72
2022/05/06 10:44:51;;;;;;;0.10;0.10;;;;;;;21.84;46.96;99839.53;6215963;23;20418;-71
2022/05/06 10:47:16;;;;;;;0.10;0.10;;;;;;;22.20;46.75;99856.31;6214728;23;20016;-71
2022/05/06 10:49:46;;;;;;;0.20;0.20;;;;;;;22.14;45.50;99860.94;6214198;23;20385;-71
2022/05/06 10:52:23;;;;;;;0.20;0.20;;;;;;;21.95;46.09;99851.38;6214266;23;20000;-72
2022/05/06 10:54:54;;;;;;;0.20;0.20;;;;;;;21.88;46.83;99857.22;6214301;23;20043;-71
2022/05/06 10:57:24;;;;;;;0.20;0.20;;;;;;;21.89;46.15;99864.47;6214070;23;20491;-72
2022/05/06 11:00:02;;;;;;;0.20;0.20;;;;;;;21.88;46.91;99852.34;6214611;23;20012;-72
2022/05/06 11:02:32;;;;;;;0.10;0.10;;;;;;;21.84;47.31;99850.84;6214177;23;20016;-72
2022/05/06 11:05:07;;;;;;;0.10;0.10;;;;;;;21.75;46.04;99864.88;6216505;23;20015;-72
2022/05/06 11:07:40;;;;;;;0.20;0.20;;;;;;;21.68;45.97;99860.22;6214170;23;20016;-72
2022/05/06 11:10:10;;;;;;;0.13;0.13;;;;;;;21.76;45.56;99855.16;6214176;23;20012;-73
2022/05/06 11:12:43;;;;;;;0.20;0.20;;;;;;;21.61;45.59;99861.19;6214744;23;20032;-71
2022/05/06 11:15:14;;;;;;;0.20;0.20;;;;;;;21.75;44.69;99857.19;6214075;23;20039;-71
2022/05/06 11:17:41;;;;;;;0.10;0.10;;;;;;;21.78;44.79;99863.97;6214369;23;20405;-71
2022/05/06 11:20:16;;;;;;;0.20;0.20;;;;;;;21.79;43.99;99855.06;6213956;23;20038;-71
2022/05/06 11:22:54;;;;;;;0.10;0.10;;;;;;;22.06;44.00;99848.22;6214731;23;20422;-71
2022/05/06 11:25:22;;;;;;;0.10;0.10;;;;;;;22.03;43.23;99849.91;6214182;23;20004;-72
2022/05/06 11:27:51;;;;;;;0.17;0.17;;;;;;;21.96;43.66;99850.91;6215168;23;20017;-72
2022/05/06 11:30:19;;;;;;;0.10;0.10;;;;;;;22.23;43.12;99852.59;6213837;23;20009;-72
2022/05/06 11:32:50;;;;;;;0.10;0.10;;;;;;;22.12;43.04;99843.63;6214200;23;20091;-72
2022/05/06 11:35:20;;;;;;;0.20;0.20;;;;;;;22.33;42.73;99839.34;6214933;23;20070;-73
2022/05/06 11:37:47;;;;;;;0.20;0.20;;;;;;;22.52;42.26;99838.31;6214296;23;20087;-73
2022/05/06 11:42:49;;;;;;;0.20;0.20;;;;;;;22.65;42.06;99847.63;6226472;23;20040;-72
2022/05/06 11:48:09;;;;;;;0.20;0.20;;;;;;;23.07;41.29;99838.22;6216014;23;20031;-72
2022/05/06 11:50:37;;;;;;;0.20;0.20;;;;;;;23.13;40.33;99813.69;6214096;23;20008;-72
2022/05/06 11:53:08;;;;;;;0.20;0.20;;;;;;;23.26;40.75;99820.88;6215913;23;20001;-72
2022/05/06 11:55:43;;;;;;;0.10;0.10;;;;;;;23.23;38.82;99813.31;6214246;23;20015;-72
2022/05/06 11:58:16;;;;;;;0.10;0.10;;;;;;;23.18;38.69;99813.91;6214509;23;20008;-72
2022/05/06 12:00:43;;;;;;;0.10;0.10;;;;;;;23.00;38.58;99805.19;6214654;23;20005;-71
2022/05/06 12:03:12;;;;;;;0.10;0.10;;;;;;;23.04;39.41;99819.25;6214477;23;20023;-72
2022/05/06 12:05:39;;;;;;;0.17;0.17;;;;;;;22.81;37.14;99821.19;6214028;23;20020;-72
2022/05/06 12:08:06;;;;;;;0.10;0.10;;;;;;;22.71;35.29;99817.47;6214006;23;20058;-72
2022/05/06 12:10:36;;;;;;;0.10;0.10;;;;;;;22.86;35.11;99812.13;6214092;23;20447;-72
2022/05/06 12:13:07;;;;;;;0.10;0.10;;;;;;;22.94;35.33;99829.72;6212962;23;20008;-72
2022/05/06 12:15:42;;;;;;;0.10;0.10;;;;;;;23.00;35.30;99800.28;6217107;23;20004;-71
2022/05/06 12:18:09;;;;;;;0.10;0.10;;;;;;;23.19;35.66;99814.69;6217450;23;20326;-71
2022/05/06 12:20:43;;;;;;;0.10;0.10;;;;;;;23.10;35.40;99817.41;6215602;23;20483;-73